createdAt,value
2018-04-10T00:00:56.728Z,21.03
2018-04-10T00:03:24.208Z,25.73
2018-04-10T00:05:51.715Z,23.83
2018-04-10T00:08:19.201Z,29.57
2018-04-10T00:10:47.094Z,26.53
2018-04-10T00:13:14.576Z,26.90
2018-04-10T00:15:42.030Z,25.03
2018-04-10T00:18:09.536Z,24.33
2018-04-10T00:20:37.068Z,29.40
2018-04-10T00:23:04.732Z,20.50
2018-04-10T00:25:32.987Z,29.10
2018-04-10T00:28:00.668Z,27.43
2018-04-10T00:30:28.332Z,24.50
2018-04-10T00:32:55.796Z,20.43
2018-04-10T00:35:23.277Z,21.13
2018-04-10T00:37:50.756Z,23.87
2018-04-10T00:40:18.249Z,25.00
2018-04-10T00:42:45.899Z,24.23
2018-04-10T00:45:13.376Z,22.03
2018-04-10T00:47:40.932Z,24.30
2018-04-10T00:50:08.400Z,32.23
2018-04-10T00:52:36.032Z,22.93
2018-04-10T00:55:03.500Z,26.23
2018-04-10T00:57:30.977Z,21.03
2018-04-10T00:59:58.436Z,20.67
2018-04-10T01:02:25.980Z,24.23
2018-04-10T01:04:53.636Z,31.43
2018-04-10T01:07:21.103Z,25.13
2018-04-10T01:09:48.572Z,21.30
2018-04-10T01:12:16.108Z,31.80
2018-04-10T01:14:44.181Z,24.47
2018-04-10T01:17:11.764Z,23.53
2018-04-10T01:19:40.000Z,20.70
2018-04-10T01:22:07.458Z,24.93
2018-04-10T01:24:34.944Z,23.33
2018-04-10T01:27:02.688Z,28.80
2018-04-10T01:29:30.165Z,24.87
2018-04-10T01:31:57.804Z,18.60
2018-04-10T01:34:25.286Z,22.40
2018-04-10T01:36:52.832Z,28.57
2018-04-10T01:39:20.584Z,20.27
2018-04-10T01:41:48.048Z,27.00
2018-04-10T01:44:15.518Z,25.70
2018-04-10T01:46:43.152Z,28.57
2018-04-10T01:49:10.724Z,21.50
2018-04-10T01:51:38.464Z,23.27
2018-04-10T01:54:05.952Z,27.37
2018-04-10T01:56:33.416Z,26.23
2018-04-10T01:59:01.111Z,24.40
2018-04-10T02:01:28.564Z,25.60
2018-04-10T02:03:56.031Z,24.03
2018-04-10T02:06:23.493Z,23.50
2018-04-10T02:08:50.973Z,26.00
2018-04-10T02:11:18.428Z,20.50
2018-04-10T02:13:46.274Z,18.63
2018-04-10T02:16:13.892Z,25.87
2018-04-10T02:18:41.368Z,28.87
2018-04-10T02:21:08.836Z,27.70
2018-04-10T02:23:36.352Z,21.13
2018-04-10T02:26:03.811Z,26.03
2018-04-10T02:28:31.461Z,23.93
2018-04-10T02:30:58.936Z,20.03
2018-04-10T02:33:26.404Z,21.13
2018-04-10T02:35:53.944Z,21.43
2018-04-10T02:38:21.405Z,21.50
2018-04-10T02:40:49.168Z,22.27
2018-04-10T02:43:16.932Z,21.23
2018-04-10T02:45:44.577Z,27.77
2018-04-10T02:48:12.051Z,20.77
2018-04-10T02:50:39.601Z,25.20
2018-04-10T02:53:07.248Z,24.13
2018-04-10T02:55:34.832Z,23.77
2018-04-10T02:58:02.590Z,20.43
2018-04-10T03:00:30.053Z,27.37
2018-04-10T03:02:57.680Z,22.13
2018-04-10T03:05:25.184Z,23.27
2018-04-10T03:07:52.721Z,21.60
2018-04-10T03:10:20.360Z,21.80
2018-04-10T03:12:47.839Z,25.23
2018-04-10T03:15:15.308Z,21.63
2018-04-10T03:17:42.856Z,21.60
2018-04-10T03:20:10.620Z,22.40
2018-04-10T03:22:38.304Z,24.83
2018-04-10T03:25:05.944Z,19.93
2018-04-10T03:27:33.412Z,22.50
2018-04-10T03:30:01.693Z,21.70
2018-04-10T03:32:29.444Z,26.50
2018-04-10T03:34:57.089Z,30.23
2018-04-10T03:37:24.564Z,24.23
2018-04-10T03:39:52.028Z,24.40
2018-04-10T03:42:19.492Z,27.70
2018-04-10T03:44:46.949Z,28.27
2018-04-10T03:47:14.865Z,23.67
2018-04-10T03:49:42.472Z,30.00
2018-04-10T03:52:09.940Z,24.53
2018-04-10T03:54:37.407Z,29.37
2018-04-10T03:57:04.924Z,31.40
2018-04-10T03:59:32.404Z,21.83
2018-04-10T04:01:59.860Z,23.30
2018-04-10T04:04:27.490Z,24.83
2018-04-10T04:06:54.980Z,25.70
2018-04-10T04:09:22.441Z,23.00
2018-04-10T04:11:49.892Z,26.37
2018-04-10T04:14:17.366Z,23.17
2018-04-10T04:16:56.588Z,30.03
2018-04-10T04:19:35.948Z,32.47
2018-04-10T04:22:15.436Z,22.70
2018-04-10T04:24:43.200Z,27.40
2018-04-10T04:27:10.864Z,27.40
2018-04-10T04:29:38.344Z,23.50
2018-04-10T04:32:07.644Z,32.00
2018-04-10T04:34:35.177Z,25.03
2018-04-10T04:37:02.840Z,25.40
2018-04-10T04:39:30.300Z,27.43
2018-04-10T04:41:57.772Z,37.97
2018-04-10T04:44:25.240Z,30.57
2018-04-10T04:46:52.704Z,30.47
2018-04-10T04:49:20.161Z,25.40
2018-04-10T04:51:47.680Z,30.43
2018-04-10T04:54:15.140Z,25.50
2018-04-10T04:56:42.905Z,27.13
2018-04-10T04:59:10.652Z,22.70
2018-04-10T05:01:38.428Z,27.67
2018-04-10T05:04:05.931Z,26.57
2018-04-10T05:06:33.636Z,26.03
2018-04-10T05:09:01.108Z,27.33
2018-04-10T05:11:28.860Z,32.13
2018-04-10T05:13:56.328Z,30.90
2018-04-10T05:16:23.921Z,34.03
2018-04-10T05:18:52.350Z,29.90
2018-04-10T05:21:19.819Z,32.13
2018-04-10T05:23:47.296Z,29.27
2018-04-10T05:26:14.785Z,22.57
2018-04-10T05:28:42.312Z,26.20
2018-04-10T05:31:10.057Z,29.00
2018-04-10T05:33:37.856Z,46.20
2018-04-10T05:36:06.325Z,41.13
2018-04-10T05:38:34.756Z,35.40
2018-04-10T05:41:02.212Z,37.20
2018-04-10T05:43:29.710Z,32.50
2018-04-10T05:45:57.181Z,26.80
2018-04-10T05:48:24.655Z,35.70
2018-04-10T05:50:52.108Z,38.47
2018-04-10T05:53:19.576Z,27.00
2018-04-10T05:55:47.052Z,27.23
2018-04-10T05:58:14.519Z,49.17
2018-04-10T06:00:42.164Z,40.50
2018-04-10T06:03:09.749Z,31.70
2018-04-10T06:05:37.225Z,33.03
2018-04-10T06:08:04.686Z,31.97
2018-04-10T06:10:32.434Z,32.20
2018-04-10T06:12:59.894Z,30.23
2018-04-10T06:15:27.633Z,35.20
2018-04-10T06:17:55.115Z,35.47
2018-04-10T06:20:22.584Z,32.80
2018-04-10T06:22:50.036Z,31.53
2018-04-10T06:25:17.780Z,28.33
2018-04-10T06:27:45.401Z,37.43
2018-04-10T06:30:12.921Z,48.20
2018-04-10T06:32:40.589Z,37.97
2018-04-10T06:35:08.134Z,35.40
2018-04-10T06:37:35.601Z,35.67
2018-04-10T06:40:03.049Z,25.03
2018-04-10T06:42:30.512Z,25.73
2018-04-10T06:44:57.978Z,20.30
2018-04-10T06:47:25.507Z,26.17
2018-04-10T06:49:53.144Z,29.00
2018-04-10T06:52:20.608Z,29.97
2018-04-10T06:54:48.061Z,26.67
2018-04-10T06:57:15.640Z,26.00
2018-04-10T06:59:43.096Z,31.47
2018-04-10T07:02:10.568Z,25.50
2018-04-10T07:04:38.040Z,35.60
2018-04-10T07:07:06.483Z,24.20
2018-04-10T07:09:33.936Z,27.97
2018-04-10T07:12:01.396Z,26.43
2018-04-10T07:14:28.857Z,21.77
2018-04-10T07:16:56.308Z,25.37
2018-04-10T07:19:23.834Z,28.47
2018-04-10T07:21:51.286Z,22.80
2018-04-10T07:24:18.741Z,23.30
2018-04-10T07:26:46.216Z,24.10
2018-04-10T07:29:13.692Z,28.93
2018-04-10T07:31:41.257Z,34.53
2018-04-10T07:34:08.853Z,26.90
2018-04-10T07:36:36.480Z,27.87
2018-04-10T07:39:03.989Z,27.87
2018-04-10T07:41:31.708Z,27.53
2018-04-10T07:43:59.349Z,26.23
2018-04-10T07:46:26.804Z,25.33
2018-04-10T07:48:54.320Z,20.53
2018-04-10T07:51:21.817Z,25.93
2018-04-10T07:53:49.245Z,23.80
2018-04-10T07:56:16.752Z,28.80
2018-04-10T07:58:44.330Z,21.83
2018-04-10T08:01:12.585Z,28.73
2018-04-10T08:03:40.353Z,24.10
2018-04-10T08:06:08.005Z,24.73
2018-04-10T08:08:35.568Z,26.47
2018-04-10T08:11:03.028Z,27.27
2018-04-10T08:13:30.790Z,18.30
2018-04-10T08:15:58.257Z,24.53
2018-04-10T08:18:25.719Z,22.17
2018-04-10T08:20:53.358Z,19.10
2018-04-10T08:23:20.837Z,18.80
2018-04-10T08:25:48.384Z,20.20
2018-04-10T08:28:16.140Z,24.37
2018-04-10T08:30:43.608Z,20.70
2018-04-10T08:33:11.372Z,20.93
2018-04-10T08:35:38.932Z,23.80
2018-04-10T08:38:06.568Z,24.37
2018-04-10T08:40:34.351Z,31.20
2018-04-10T08:43:01.922Z,19.60
2018-04-10T08:45:29.424Z,20.03
2018-04-10T08:47:57.026Z,16.47
2018-04-10T08:50:25.260Z,21.80
2018-04-10T08:52:52.743Z,21.60
2018-04-10T08:55:20.229Z,21.80
2018-04-10T08:57:48.076Z,17.53
2018-04-10T09:00:15.540Z,19.60
2018-04-10T09:02:43.188Z,18.83
2018-04-10T09:05:10.652Z,23.37
2018-04-10T09:07:38.208Z,17.23
2018-04-10T09:10:05.668Z,19.33
2018-04-10T09:12:33.325Z,21.73
2018-04-10T09:15:00.888Z,19.70
2018-04-10T09:17:28.545Z,21.17
2018-04-10T09:19:56.004Z,29.37
2018-04-10T09:22:23.488Z,17.40
2018-04-10T09:24:50.944Z,16.30
2018-04-10T09:27:18.392Z,14.67
2018-04-10T09:29:46.668Z,15.03
2018-04-10T09:32:14.317Z,19.50
2018-04-10T09:34:41.793Z,26.53
2018-04-10T09:37:09.248Z,19.90
2018-04-10T09:39:36.992Z,21.10
2018-04-10T09:42:04.483Z,18.17
2018-04-10T09:44:32.213Z,17.13
2018-04-10T09:46:59.677Z,20.57
2018-04-10T09:49:27.436Z,16.20
2018-04-10T09:51:54.933Z,16.83
2018-04-10T09:54:22.663Z,16.00
2018-04-10T09:56:50.324Z,17.00
2018-04-10T09:59:17.884Z,15.40
2018-04-10T10:01:45.337Z,14.93
2018-04-10T10:04:12.791Z,13.80
2018-04-10T10:06:40.552Z,13.33
2018-04-10T10:09:08.013Z,20.07
2018-04-10T10:11:35.472Z,19.67
2018-04-10T10:14:03.236Z,19.70
2018-04-10T10:16:30.996Z,24.50
2018-04-10T10:18:58.452Z,21.63
2018-04-10T10:21:25.916Z,19.70
2018-04-10T10:23:53.677Z,17.70
2018-04-10T10:26:21.136Z,26.03
2018-04-10T10:28:48.894Z,33.17
2018-04-10T10:31:16.631Z,18.90
2018-04-10T10:33:44.089Z,25.77
2018-04-10T10:36:11.573Z,18.70
2018-04-10T10:38:39.208Z,17.93
2018-04-10T10:41:06.795Z,21.07
2018-04-10T10:43:34.251Z,19.03
2018-04-10T10:46:02.020Z,26.67
2018-04-10T10:48:29.483Z,20.43
2018-04-10T10:50:57.237Z,23.87
2018-04-10T10:53:24.694Z,20.43
2018-04-10T10:55:52.333Z,20.93
2018-04-10T10:58:19.886Z,18.47
2018-04-10T11:00:47.352Z,15.33
2018-04-10T11:03:14.832Z,15.63
2018-04-10T11:05:42.593Z,20.50
2018-04-10T11:08:10.057Z,21.23
2018-04-10T11:10:37.512Z,17.80
2018-04-10T11:13:06.808Z,19.37
2018-04-10T11:15:34.265Z,21.97
2018-04-10T11:18:01.940Z,21.03
2018-04-10T11:20:29.406Z,20.90
2018-04-10T11:22:56.942Z,16.43
2018-04-10T11:25:24.402Z,35.60
2018-04-10T11:27:52.041Z,18.87
2018-04-10T11:30:19.496Z,21.50
2018-04-10T11:32:47.032Z,20.43
2018-04-10T11:35:14.499Z,22.73
2018-04-10T11:37:42.031Z,22.33
2018-04-10T11:40:09.481Z,20.63
2018-04-10T11:42:37.223Z,19.33
2018-04-10T11:45:04.717Z,18.97
2018-04-10T11:47:32.404Z,27.47
2018-04-10T11:49:59.892Z,17.70
2018-04-10T11:52:27.809Z,18.47
2018-04-10T11:54:55.408Z,19.90
2018-04-10T11:57:22.892Z,22.90
2018-04-10T11:59:50.637Z,19.50
2018-04-10T12:02:18.872Z,19.93
2018-04-10T12:04:46.460Z,19.90
2018-04-10T12:07:13.975Z,20.53
2018-04-10T12:09:41.457Z,18.90
2018-04-10T12:12:09.052Z,22.23
2018-04-10T12:14:36.596Z,24.10
2018-04-10T12:17:04.057Z,24.93
2018-04-10T12:19:31.815Z,18.67
2018-04-10T12:21:59.317Z,23.30
2018-04-10T12:24:26.990Z,23.40
2018-04-10T12:26:54.450Z,22.83
2018-04-10T12:29:21.920Z,22.97
2018-04-10T12:31:49.376Z,17.87
2018-04-10T12:34:16.849Z,22.27
2018-04-10T12:36:44.326Z,21.10
2018-04-10T12:39:11.769Z,21.90
2018-04-10T12:41:39.236Z,19.00
2018-04-10T12:44:06.692Z,28.07
2018-04-10T12:46:34.152Z,21.80
2018-04-10T12:49:01.745Z,22.47
2018-04-10T12:51:29.208Z,22.13
2018-04-10T12:53:56.664Z,18.80
2018-04-10T12:56:24.139Z,24.10
2018-04-10T12:58:51.597Z,20.50
2018-04-10T13:01:19.056Z,22.43
2018-04-10T13:03:46.729Z,20.53
2018-04-10T13:06:14.196Z,27.00
2018-04-10T13:08:41.652Z,26.70
2018-04-10T13:11:09.124Z,20.37
2018-04-10T13:13:36.598Z,26.97
2018-04-10T13:16:04.066Z,19.90
2018-04-10T13:18:32.290Z,20.37
2018-04-10T13:21:00.556Z,23.13
2018-04-10T13:23:28.312Z,25.30
2018-04-10T13:25:55.776Z,21.43
2018-04-10T13:28:23.240Z,24.40
2018-04-10T13:30:50.716Z,29.43
2018-04-10T13:33:18.173Z,25.20
2018-04-10T13:35:45.910Z,22.93
2018-04-10T13:38:13.440Z,19.70
2018-04-10T13:40:40.921Z,29.53
2018-04-10T13:43:08.384Z,24.00
2018-04-10T13:45:35.866Z,26.27
2018-04-10T13:48:03.337Z,27.33
2018-04-10T13:50:30.788Z,25.10
2018-04-10T13:52:58.268Z,25.93
2018-04-10T13:55:25.736Z,21.67
2018-04-10T13:57:53.197Z,23.80
2018-04-10T14:00:20.648Z,24.23
2018-04-10T14:02:48.108Z,25.10
2018-04-10T14:05:15.832Z,26.27
2018-04-10T14:07:43.304Z,30.40
2018-04-10T14:10:10.929Z,28.07
2018-04-10T14:12:38.508Z,29.27
2018-04-10T14:15:05.965Z,31.17
2018-04-10T14:17:33.444Z,27.10
2018-04-10T14:20:01.061Z,24.40
2018-04-10T14:22:28.640Z,30.70
2018-04-10T14:24:56.258Z,26.13
2018-04-10T14:27:23.780Z,30.50
2018-04-10T14:29:51.288Z,26.53
2018-04-10T14:32:18.968Z,28.50
2018-04-10T14:34:46.458Z,28.67
2018-04-10T14:37:13.916Z,28.43
2018-04-10T14:39:41.402Z,24.40
2018-04-10T14:42:08.861Z,23.00
2018-04-10T14:44:36.328Z,25.77
2018-04-10T14:47:03.825Z,26.07
2018-04-10T14:49:31.313Z,27.03
2018-04-10T14:51:58.876Z,25.73
2018-04-10T14:54:27.312Z,31.87
2018-04-10T14:56:54.808Z,26.07
2018-04-10T14:59:22.404Z,25.57
2018-04-10T15:01:49.896Z,25.40
2018-04-10T15:04:17.509Z,28.43
2018-04-10T15:06:44.996Z,22.53
2018-04-10T15:09:12.482Z,29.07
2018-04-10T15:11:39.960Z,25.27
2018-04-10T15:14:07.527Z,26.90
2018-04-10T15:16:35.775Z,29.83
2018-04-10T15:19:03.274Z,28.60
2018-04-10T15:21:30.733Z,24.33
2018-04-10T15:23:58.221Z,25.20
2018-04-10T15:26:25.735Z,26.20
2018-04-10T15:28:53.262Z,23.93
2018-04-10T15:31:20.729Z,26.10
2018-04-10T15:33:48.282Z,21.07
2018-04-10T15:36:15.853Z,28.73
2018-04-10T15:38:44.261Z,30.10
2018-04-10T15:41:11.763Z,36.53
2018-04-10T15:43:39.288Z,29.63
2018-04-10T15:46:06.805Z,24.00
2018-04-10T15:48:34.370Z,23.73
2018-04-10T15:51:02.647Z,21.30
2018-04-10T15:53:30.152Z,22.27
2018-04-10T15:55:57.637Z,24.30
2018-04-10T15:58:25.098Z,25.27
2018-04-10T16:00:52.574Z,23.80
2018-04-10T16:03:20.830Z,19.77
2018-04-10T16:05:48.325Z,24.23
2018-04-10T16:08:15.785Z,23.63
2018-04-10T16:10:43.285Z,24.43
2018-04-10T16:13:10.785Z,28.57
2018-04-10T16:15:39.059Z,24.43
2018-04-10T16:18:06.528Z,28.57
2018-04-10T16:20:34.005Z,25.50
2018-04-10T16:23:01.498Z,24.13
2018-04-10T16:25:29.024Z,24.70
2018-04-10T16:27:56.888Z,21.37
2018-04-10T16:30:24.357Z,28.90
2018-04-10T16:32:51.845Z,32.30
2018-04-10T16:35:19.326Z,27.30
2018-04-10T16:37:46.797Z,22.37
2018-04-10T16:40:14.293Z,23.23
2018-04-10T16:42:42.784Z,23.80
2018-04-10T16:45:10.265Z,20.80
2018-04-10T16:47:37.744Z,24.37
2018-04-10T16:50:05.217Z,23.40
2018-04-10T16:52:32.697Z,28.83
2018-04-10T16:55:00.210Z,24.30
2018-04-10T16:57:27.775Z,28.23
2018-04-10T16:59:56.018Z,29.70
2018-04-10T17:02:23.478Z,25.53
2018-04-10T17:04:50.974Z,23.93
2018-04-10T17:07:18.451Z,23.23
2018-04-10T17:09:45.927Z,24.07
2018-04-10T17:12:13.397Z,28.90
2018-04-10T17:14:40.882Z,27.93
2018-04-10T17:17:09.130Z,31.17
2018-04-10T17:19:36.599Z,29.60
2018-04-10T17:22:04.060Z,23.40
2018-04-10T17:24:31.558Z,33.50
2018-04-10T17:26:59.033Z,34.13
2018-04-10T17:29:26.500Z,37.03
2018-04-10T17:31:53.970Z,38.60
2018-04-10T17:34:21.453Z,27.07
2018-04-10T17:36:49.702Z,20.80
2018-04-10T17:39:17.236Z,16.93
2018-04-10T17:41:44.697Z,16.40
2018-04-10T17:44:12.180Z,18.17
2018-04-10T17:46:39.680Z,25.83
2018-04-10T17:49:07.941Z,21.70
2018-04-10T17:51:35.428Z,14.07
2018-04-10T17:54:02.925Z,11.47
2018-04-10T17:56:30.393Z,10.90
2018-04-10T17:58:57.868Z,9.40
2018-04-10T18:01:25.425Z,15.53
2018-04-10T18:03:53.450Z,11.87
2018-04-10T18:06:20.954Z,17.00
2018-04-10T18:08:48.413Z,18.87
2018-04-10T18:11:15.910Z,8.50
2018-04-10T18:13:43.373Z,11.33
2018-04-10T18:16:10.841Z,9.50
2018-04-10T18:18:38.334Z,9.00
2018-04-10T18:21:05.809Z,8.17
2018-04-10T18:23:33.330Z,10.43
2018-04-10T18:26:00.813Z,7.67
2018-04-10T18:28:28.271Z,5.93
2018-04-10T18:30:55.741Z,6.47
2018-04-10T18:33:24.590Z,8.27
2018-04-10T18:35:52.081Z,4.83
2018-04-10T18:38:19.543Z,7.00
2018-04-10T18:40:47.037Z,7.55
2018-04-10T18:43:14.515Z,11.97
2018-04-10T18:45:42.020Z,12.30
2018-04-10T18:48:10.309Z,5.30
2018-04-10T18:50:37.797Z,6.80
2018-04-10T18:53:05.274Z,7.63
2018-04-10T18:55:32.723Z,4.33
2018-04-10T18:58:00.211Z,4.97
2018-04-10T19:00:27.688Z,7.60
2018-04-10T19:02:55.197Z,3.97
2018-04-10T19:05:22.656Z,9.87
2018-04-10T19:07:50.191Z,9.13
2018-04-10T19:10:17.654Z,9.27
2018-04-10T19:12:45.174Z,9.53
2018-04-10T19:15:13.388Z,6.13
2018-04-10T19:17:40.863Z,9.67
2018-04-10T19:20:08.355Z,13.33
2018-04-10T19:22:36.197Z,15.87
2018-04-10T19:25:03.657Z,10.27
2018-04-10T19:27:31.418Z,7.73
2018-04-10T19:29:58.880Z,8.30
2018-04-10T19:32:26.346Z,7.57
2018-04-10T19:34:53.868Z,5.37
2018-04-10T19:37:21.349Z,6.97
2018-04-10T19:39:48.889Z,14.80
2018-04-10T19:42:16.393Z,7.20
2018-04-10T19:44:43.883Z,11.27
2018-04-10T19:47:11.343Z,5.97
2018-04-10T19:49:38.877Z,5.40
2018-04-10T19:52:06.326Z,9.07
2018-04-10T19:54:33.836Z,7.83
2018-04-10T19:57:01.424Z,7.27
2018-04-10T19:59:28.889Z,4.27
2018-04-10T20:01:56.381Z,5.33
2018-04-10T20:04:23.844Z,4.83
2018-04-10T20:06:51.364Z,8.13
2018-04-10T20:09:18.863Z,4.50
2018-04-10T20:11:46.364Z,6.93
2018-04-10T20:14:13.838Z,5.43
2018-04-10T20:16:41.363Z,4.27
2018-04-10T20:19:08.885Z,7.80
2018-04-10T20:21:36.413Z,5.17
2018-04-10T20:24:03.905Z,4.20
2018-04-10T20:26:31.397Z,5.10
2018-04-10T20:28:58.899Z,5.30
2018-04-10T20:31:27.169Z,4.70
2018-04-10T20:33:55.429Z,4.07
2018-04-10T20:36:22.911Z,3.90
2018-04-10T20:38:50.403Z,6.90
2018-04-10T20:41:17.890Z,4.60
2018-04-10T20:43:45.409Z,4.53
2018-04-10T20:46:12.942Z,4.97
2018-04-10T20:48:40.522Z,3.33
2018-04-10T20:51:07.997Z,7.63
2018-04-10T20:53:35.482Z,5.73
2018-04-10T20:56:03.696Z,4.83
2018-04-10T20:58:31.256Z,3.90
2018-04-10T21:00:58.757Z,4.80
2018-04-10T21:03:26.244Z,3.77
2018-04-10T21:05:53.984Z,4.53
2018-04-10T21:08:21.486Z,3.27
2018-04-10T21:10:48.996Z,3.60
2018-04-10T21:13:16.457Z,2.73
2018-04-10T21:15:43.946Z,4.20
2018-04-10T21:18:12.233Z,3.30
2018-04-10T21:20:39.777Z,4.93
2018-04-10T21:23:07.275Z,3.20
2018-04-10T21:25:34.773Z,7.27
2018-04-10T21:28:02.228Z,3.90
2018-04-10T21:30:29.693Z,3.60
2018-04-10T21:32:57.162Z,3.37
2018-04-10T21:35:24.742Z,2.97
2018-04-10T21:37:53.019Z,3.70
2018-04-10T21:40:20.494Z,3.07
2018-04-10T21:42:53.548Z,2.97
2018-04-10T21:45:21.072Z,6.93
2018-04-10T21:47:48.569Z,4.47
2018-04-10T21:50:16.828Z,4.57
2018-04-10T21:52:44.286Z,4.13
2018-04-10T21:55:11.854Z,2.85
2018-04-10T21:57:39.294Z,6.67
2018-04-10T22:00:06.790Z,3.27
2018-04-10T22:02:34.258Z,3.13
2018-04-10T22:05:01.744Z,3.87
2018-04-10T22:07:29.233Z,2.97
2018-04-10T22:09:56.683Z,3.23
2018-04-10T22:12:24.140Z,4.20
2018-04-10T22:14:51.684Z,3.90
2018-04-10T22:17:19.453Z,3.20
2018-04-10T22:19:47.480Z,3.70
2018-04-10T22:22:14.964Z,4.13
2018-04-10T22:24:42.400Z,4.50
2018-04-10T22:27:09.856Z,5.23
2018-04-10T22:29:37.313Z,3.77
2018-04-10T22:32:04.835Z,3.63
2018-04-10T22:34:32.413Z,4.80
2018-04-10T22:36:59.880Z,5.23
2018-04-10T22:39:27.356Z,4.50
2018-04-10T22:41:54.816Z,5.23
2018-04-10T22:44:22.376Z,4.30
2018-04-10T22:46:49.853Z,4.23
2018-04-10T22:49:17.793Z,3.77
2018-04-10T22:51:45.260Z,3.83
2018-04-10T22:54:12.720Z,7.30
2018-04-10T22:56:40.272Z,7.13
2018-04-10T22:59:08.033Z,3.07
2018-04-10T23:01:35.797Z,4.87
2018-04-10T23:04:03.266Z,7.40
2018-04-10T23:06:30.897Z,4.97
2018-04-10T23:08:58.519Z,3.40
2018-04-10T23:11:26.072Z,5.73
2018-04-10T23:13:54.304Z,4.77
2018-04-10T23:16:21.764Z,4.50
2018-04-10T23:18:49.234Z,4.37
2018-04-10T23:21:17.040Z,5.97
2018-04-10T23:23:44.693Z,5.80
2018-04-10T23:26:12.157Z,4.23
2018-04-10T23:28:39.692Z,7.20
2018-04-10T23:31:07.156Z,8.80
2018-04-10T23:33:34.609Z,3.83
2018-04-10T23:36:02.256Z,6.20
2018-04-10T23:38:29.842Z,4.17
2018-04-10T23:40:57.482Z,6.07
2018-04-10T23:43:24.948Z,6.47
2018-04-10T23:45:52.408Z,4.00
2018-04-10T23:48:19.885Z,4.33
2018-04-10T23:50:47.505Z,5.30
2018-04-10T23:53:15.093Z,4.50
2018-04-10T23:55:42.580Z,6.20
2018-04-10T23:58:10.025Z,4.90
